Currently 57°F in Simi Valley, California, USA
57°F
59°F / 57°F
calm
0.00"
Monday, May 29, 2017 2:40 AM PDT

Simi Valley, California Weather Summary
Last 36 Hours

Temperature Winds Hourly Humidity Dewpoint
Time Report Norm Report Norm Max Gusts Precip. Rpt. Norm Rpt. Norm Pressure
1Mon 02:40 AM  56.9°F  56°F  calm  2 mph  none  0.00"  76%  77%  49°F  49°F  29.89"
3Mon 02:38 AM  56.8°F  56°F  calm  2 mph  none  ----  76%  77%  49°F  49°F  29.89"
Mon 02:00 AM  57.6°F  57°F  3 mph N  2 mph  4 mph  0.00"  75%  76%  49°F  49°F  29.90"
Mon 01:00 AM  59.0°F  57°F  calm  2 mph  4 mph  0.00"  73%  75%  50°F  49°F  29.93"
2Mon 12:39 AM  59.5°F  58°F  calm  2 mph  2 mph  ----  74%  75%  51°F  49°F  29.93"
Mon 12:00 AM  59.2°F  58°F  3 mph W  2 mph  6 mph  0.00"  73%  74%  50°F  50°F  29.93"
Sun 11:00 PM  61.5°F  60°F  2 mph NW  2 mph  5 mph  0.00"  69%  73%  51°F  51°F  29.94"
Sun 10:00 PM  62.8°F  61°F  4 mph NW  1 mph  6 mph  0.00"  67%  72%  51°F  52°F  29.94"
Sun 09:00 PM  66.2°F  63°F  calm  3 mph  6 mph  0.00"  63%  69%  53°F  52°F  29.92"
Sun 08:00 PM  67.8°F  66°F  2 mph W  4 mph  11 mph  0.00"  61%  64%  53°F  53°F  29.93"
Sun 07:00 PM  73.6°F  70°F  7 mph W  5 mph  12 mph  0.00"  51%  56%  54°F  53°F  29.92"
Sun 06:00 PM  75.9°F  73°F  9 mph W  6 mph  14 mph  0.00"  46%  52%  53°F  54°F  29.92"
Sun 05:00 PM  75.9°F  74°F  6 mph W  7 mph  14 mph  0.00"  46%  50%  53°F  53°F  29.92"
Sun 04:00 PM  76.0°F  75°F  9 mph W  7 mph  19 mph  0.00"  48%  49%  54°F  54°F  29.94"
Sun 03:00 PM  78.7°F  76°F  10 mph W  7 mph  16 mph  0.00"  43%  48%  54°F  54°F  29.94"
Sun 02:00 PM  77.3°F  75°F  9 mph W  8 mph  15 mph  0.00"  46%  49%  54°F  55°F  29.95"
Sun 01:00 PM  77.8°F  75°F  8 mph SW  7 mph  15 mph  0.00"  44%  50%  53°F  55°F  29.96"
Sun 12:00 PM  74.8°F  74°F  6 mph SW  6 mph  10 mph  0.00"  44%  52%  51°F  55°F  29.97"
Sun 11:00 AM  70.6°F  71°F  5 mph SW  4 mph  7 mph  0.00"  54%  57%  53°F  55°F  29.98"
Sun 10:00 AM  66.7°F  68°F  4 mph NW  3 mph  8 mph  0.00"  62%  64%  53°F  55°F  30.00"
Sun 09:00 AM  62.7°F  64°F  4 mph SW  2 mph  6 mph  0.00"  72%  72%  53°F  54°F  30.00"
Sun 08:00 AM  57.8°F  60°F  calm  2 mph  1 mph  0.00"  81%  78%  52°F  53°F  30.00"
Sun 07:00 AM  53.3°F  55°F  calm  1 mph  7 mph  0.00"  84%  82%  48°F  50°F  29.99"
Sun 06:00 AM  51.4°F  54°F  4 mph NW  2 mph  6 mph  0.00"  84%  81%  46°F  48°F  29.97"
Sun 05:00 AM  51.8°F  55°F  4 mph SW  2 mph  4 mph  0.00"  83%  80%  47°F  48°F  29.96"
Sun 04:00 AM  52.3°F  55°F  2 mph NE  1 mph  7 mph  0.00"  83%  79%  47°F  49°F  29.96"
Sun 03:00 AM  52.3°F  56°F  5 mph N  1 mph  7 mph  0.00"  82%  78%  47°F  49°F  29.97"
Sun 02:00 AM  52.9°F  56°F  4 mph N  2 mph  5 mph  0.00"  80%  77%  47°F  49°F  29.98"
Sun 01:00 AM  53.6°F  57°F  3 mph NW  2 mph  7 mph  0.00"  79%  76%  47°F  49°F  30.00"
Sun 12:00 AM  54.4°F  58°F  4 mph NW  2 mph  5 mph  0.00"  78%  74%  47°F  50°F  30.00"
Sat 11:00 PM  55.5°F  59°F  4 mph NW  1 mph  6 mph  0.00"  76%  73%  48°F  51°F  30.01"
Sat 10:00 PM  56.7°F  61°F  4 mph N  1 mph  6 mph  0.00"  75%  71%  49°F  51°F  30.01"
Sat 09:00 PM  59.5°F  63°F  2 mph W  3 mph  7 mph  0.00"  74%  69%  51°F  52°F  30.00"
Sat 08:00 PM  61.1°F  66°F  4 mph W  4 mph  15 mph  0.00"  70%  64%  51°F  53°F  30.00"
Sat 07:00 PM  65.4°F  70°F  5 mph W  5 mph  16 mph  0.00"  64%  57%  52°F  53°F  29.99"
Sat 06:00 PM  67.8°F  72°F  5 mph W  6 mph  16 mph  0.00"  58%  53%  52°F  53°F  29.99"
Sat 05:00 PM  69.5°F  74°F  8 mph W  7 mph  18 mph  0.00"  56%  50%  52°F  53°F  29.99"
Sat 04:00 PM  69.5°F  75°F  10 mph W  7 mph  17 mph  0.00"  58%  49%  53°F  53°F  29.99"
Sat 03:00 PM  70.8°F  75°F  9 mph NW  7 mph  20 mph  0.00"  54%  48%  53°F  54°F  29.99"

  1. Current weather data. No green row appears if the current weather data is also the high or low for the current day.
  2. High temperature for the current day.
  3. Low temperature for the current day.

The Simi Valley, California weather pages are a service of WeatherCurrents.
Copyright ©Mon May 29 02:41:58 PDT 2017  WeatherCurrents. All rights reserved. - Submit questions and comments - Privacy Policy

This page automatically refreshes every 10 minutes.